sensor_id;sensor_type;location;lat;lon;timestamp;P1;durP1;ratioP1;P2;durP2;ratioP2
75971;SDS011;64651;47.540;19.088;2024-01-15T00:01:44;22.35;;;13.93;;
75971;SDS011;64651;47.540;19.088;2024-01-15T00:06:46;22.17;;;14.52;;
75971;SDS011;64651;47.540;19.088;2024-01-15T00:11:48;21.03;;;13.40;;
75971;SDS011;64651;47.540;19.088;2024-01-15T00:16:51;21.60;;;14.57;;
75971;SDS011;64651;47.540;19.088;2024-01-15T00:21:56;21.42;;;13.40;;
75971;SDS011;64651;47.540;19.088;2024-01-15T00:26:59;20.20;;;13.77;;
75971;SDS011;64651;47.540;19.088;2024-01-15T00:32:01;20.17;;;13.23;;
75971;SDS011;64651;47.540;19.088;2024-01-15T00:37:03;20.03;;;13.57;;
75971;SDS011;64651;47.540;19.088;2024-01-15T00:42:08;20.25;;;13.38;;
75971;SDS011;64651;47.540;19.088;2024-01-15T00:47:10;20.75;;;13.27;;
75971;SDS011;64651;47.540;19.088;2024-01-15T00:52:13;20.05;;;13.48;;
75971;SDS011;64651;47.540;19.088;2024-01-15T00:57:15;20.45;;;12.40;;
75971;SDS011;64651;47.540;19.088;2024-01-15T01:02:17;19.47;;;12.97;;
75971;SDS011;64651;47.540;19.088;2024-01-15T01:07:20;18.98;;;13.40;;
75971;SDS011;64651;47.540;19.088;2024-01-15T01:12:22;19.80;;;13.32;;
75971;SDS011;64651;47.540;19.088;2024-01-15T01:17:24;21.90;;;13.70;;
75971;SDS011;64651;47.540;19.088;2024-01-15T01:22:27;19.33;;;13.35;;
75971;SDS011;64651;47.540;19.088;2024-01-15T01:27:29;19.20;;;12.43;;
75971;SDS011;64651;47.540;19.088;2024-01-15T01:32:31;19.00;;;12.95;;
75971;SDS011;64651;47.540;19.088;2024-01-15T01:37:33;20.42;;;13.85;;
75971;SDS011;64651;47.540;19.088;2024-01-15T01:42:36;19.35;;;13.48;;
75971;SDS011;64651;47.540;19.088;2024-01-15T01:47:38;17.12;;;12.57;;
75971;SDS011;64651;47.540;19.088;2024-01-15T01:52:41;20.50;;;14.07;;
75971;SDS011;64651;47.540;19.088;2024-01-15T01:57:44;18.23;;;13.20;;
75971;SDS011;64651;47.540;19.088;2024-01-15T02:02:46;20.08;;;13.68;;
75971;SDS011;64651;47.540;19.088;2024-01-15T02:07:48;19.70;;;13.52;;
75971;SDS011;64651;47.540;19.088;2024-01-15T02:12:51;18.20;;;12.65;;
75971;SDS011;64651;47.540;19.088;2024-01-15T02:17:56;18.60;;;13.47;;
75971;SDS011;64651;47.540;19.088;2024-01-15T02:23:15;19.37;;;13.43;;
75971;SDS011;64651;47.540;19.088;2024-01-15T02:28:17;19.58;;;13.73;;
75971;SDS011;64651;47.540;19.088;2024-01-15T02:33:20;20.30;;;13.68;;
75971;SDS011;64651;47.540;19.088;2024-01-15T02:38:22;18.83;;;13.55;;
75971;SDS011;64651;47.540;19.088;2024-01-15T02:43:24;19.17;;;13.33;;
75971;SDS011;64651;47.540;19.088;2024-01-15T02:48:26;19.62;;;14.07;;
75971;SDS011;64651;47.540;19.088;2024-01-15T02:53:29;18.10;;;12.98;;
75971;SDS011;64651;47.540;19.088;2024-01-15T02:58:31;19.58;;;13.75;;
75971;SDS011;64651;47.540;19.088;2024-01-15T03:03:33;18.08;;;12.93;;
75971;SDS011;64651;47.540;19.088;2024-01-15T03:08:35;19.07;;;13.33;;
75971;SDS011;64651;47.540;19.088;2024-01-15T03:13:38;19.15;;;13.25;;
75971;SDS011;64651;47.540;19.088;2024-01-15T03:18:40;19.67;;;13.02;;
75971;SDS011;64651;47.540;19.088;2024-01-15T03:23:42;18.50;;;13.45;;
75971;SDS011;64651;47.540;19.088;2024-01-15T03:28:44;20.45;;;14.52;;
75971;SDS011;64651;47.540;19.088;2024-01-15T03:33:46;18.43;;;13.33;;
75971;SDS011;64651;47.540;19.088;2024-01-15T03:38:49;19.02;;;13.68;;
75971;SDS011;64651;47.540;19.088;2024-01-15T03:43:51;19.95;;;13.65;;
75971;SDS011;64651;47.540;19.088;2024-01-15T03:48:53;19.95;;;13.62;;
75971;SDS011;64651;47.540;19.088;2024-01-15T03:53:55;18.45;;;12.98;;
75971;SDS011;64651;47.540;19.088;2024-01-15T03:58:57;19.67;;;13.80;;
75971;SDS011;64651;47.540;19.088;2024-01-15T04:04:00;18.67;;;14.23;;
75971;SDS011;64651;47.540;19.088;2024-01-15T04:09:02;18.58;;;14.02;;
75971;SDS011;64651;47.540;19.088;2024-01-15T04:14:04;19.70;;;14.32;;
75971;SDS011;64651;47.540;19.088;2024-01-15T04:19:07;18.40;;;13.55;;
75971;SDS011;64651;47.540;19.088;2024-01-15T04:24:09;18.73;;;13.73;;
75971;SDS011;64651;47.540;19.088;2024-01-15T04:29:11;19.35;;;13.73;;
75971;SDS011;64651;47.540;19.088;2024-01-15T04:34:14;20.02;;;14.45;;
75971;SDS011;64651;47.540;19.088;2024-01-15T04:39:16;20.15;;;13.93;;
75971;SDS011;64651;47.540;19.088;2024-01-15T04:44:18;19.40;;;13.90;;
75971;SDS011;64651;47.540;19.088;2024-01-15T04:49:20;18.80;;;13.57;;
75971;SDS011;64651;47.540;19.088;2024-01-15T04:54:23;18.75;;;14.02;;
75971;SDS011;64651;47.540;19.088;2024-01-15T04:59:25;20.08;;;14.35;;
75971;SDS011;64651;47.540;19.088;2024-01-15T05:04:27;18.58;;;13.90;;
75971;SDS011;64651;47.540;19.088;2024-01-15T05:09:29;18.70;;;14.63;;
75971;SDS011;64651;47.540;19.088;2024-01-15T05:14:34;20.03;;;15.23;;
75971;SDS011;64651;47.540;19.088;2024-01-15T05:19:36;20.37;;;14.48;;
75971;SDS011;64651;47.540;19.088;2024-01-15T05:24:38;20.83;;;14.57;;
75971;SDS011;64651;47.540;19.088;2024-01-15T05:29:40;20.12;;;14.68;;
75971;SDS011;64651;47.540;19.088;2024-01-15T05:34:43;21.17;;;15.23;;
75971;SDS011;64651;47.540;19.088;2024-01-15T05:39:45;20.97;;;14.87;;
75971;SDS011;64651;47.540;19.088;2024-01-15T05:44:47;20.90;;;14.85;;
75971;SDS011;64651;47.540;19.088;2024-01-15T05:49:49;21.55;;;14.95;;
75971;SDS011;64651;47.540;19.088;2024-01-15T05:54:52;21.23;;;15.45;;
75971;SDS011;64651;47.540;19.088;2024-01-15T05:59:54;20.80;;;14.73;;
75971;SDS011;64651;47.540;19.088;2024-01-15T06:04:56;20.70;;;15.47;;
75971;SDS011;64651;47.540;19.088;2024-01-15T06:09:59;19.33;;;14.38;;
75971;SDS011;64651;47.540;19.088;2024-01-15T06:15:01;21.33;;;15.60;;
75971;SDS011;64651;47.540;19.088;2024-01-15T06:20:04;20.23;;;15.55;;
75971;SDS011;64651;47.540;19.088;2024-01-15T06:25:07;21.23;;;15.38;;
75971;SDS011;64651;47.540;19.088;2024-01-15T06:30:10;20.63;;;15.13;;
75971;SDS011;64651;47.540;19.088;2024-01-15T06:35:14;21.55;;;16.10;;
75971;SDS011;64651;47.540;19.088;2024-01-15T06:40:16;23.15;;;16.65;;
75971;SDS011;64651;47.540;19.088;2024-01-15T06:45:18;21.45;;;15.95;;
75971;SDS011;64651;47.540;19.088;2024-01-15T06:50:20;20.55;;;15.75;;
75971;SDS011;64651;47.540;19.088;2024-01-15T06:55:22;42.20;;;26.07;;
75971;SDS011;64651;47.540;19.088;2024-01-15T07:00:25;41.83;;;28.95;;
75971;SDS011;64651;47.540;19.088;2024-01-15T07:05:27;41.63;;;29.67;;
75971;SDS011;64651;47.540;19.088;2024-01-15T07:10:32;43.13;;;29.73;;
75971;SDS011;64651;47.540;19.088;2024-01-15T07:15:38;42.67;;;31.10;;
75971;SDS011;64651;47.540;19.088;2024-01-15T07:20:40;44.37;;;30.20;;
75971;SDS011;64651;47.540;19.088;2024-01-15T07:25:42;49.95;;;32.03;;
75971;SDS011;64651;47.540;19.088;2024-01-15T07:30:44;39.30;;;25.35;;
75971;SDS011;64651;47.540;19.088;2024-01-15T07:35:47;41.70;;;24.33;;
75971;SDS011;64651;47.540;19.088;2024-01-15T07:40:55;35.08;;;22.37;;
75971;SDS011;64651;47.540;19.088;2024-01-15T07:45:58;35.03;;;21.90;;
75971;SDS011;64651;47.540;19.088;2024-01-15T07:51:00;31.30;;;20.42;;
75971;SDS011;64651;47.540;19.088;2024-01-15T07:56:02;31.17;;;21.05;;
75971;SDS011;64651;47.540;19.088;2024-01-15T08:01:05;31.45;;;20.80;;
75971;SDS011;64651;47.540;19.088;2024-01-15T08:06:08;29.02;;;19.08;;
75971;SDS011;64651;47.540;19.088;2024-01-15T08:11:11;30.53;;;20.53;;
75971;SDS011;64651;47.540;19.088;2024-01-15T08:16:14;27.35;;;19.10;;
75971;SDS011;64651;47.540;19.088;2024-01-15T08:21:16;27.35;;;19.27;;
75971;SDS011;64651;47.540;19.088;2024-01-15T08:26:18;27.75;;;19.67;;
75971;SDS011;64651;47.540;19.088;2024-01-15T08:31:20;28.17;;;18.73;;
75971;SDS011;64651;47.540;19.088;2024-01-15T08:36:23;24.77;;;17.63;;
75971;SDS011;64651;47.540;19.088;2024-01-15T08:41:26;23.30;;;16.87;;
75971;SDS011;64651;47.540;19.088;2024-01-15T08:46:28;23.12;;;16.45;;
75971;SDS011;64651;47.540;19.088;2024-01-15T08:51:31;24.08;;;16.05;;
75971;SDS011;64651;47.540;19.088;2024-01-15T08:56:33;22.85;;;16.67;;
75971;SDS011;64651;47.540;19.088;2024-01-15T09:01:36;20.97;;;15.57;;
75971;SDS011;64651;47.540;19.088;2024-01-15T09:06:39;21.45;;;15.30;;
75971;SDS011;64651;47.540;19.088;2024-01-15T09:11:42;19.52;;;14.63;;
75971;SDS011;64651;47.540;19.088;2024-01-15T09:16:44;20.35;;;14.63;;
75971;SDS011;64651;47.540;19.088;2024-01-15T09:21:47;18.95;;;13.48;;
75971;SDS011;64651;47.540;19.088;2024-01-15T09:26:49;19.67;;;14.30;;
75971;SDS011;64651;47.540;19.088;2024-01-15T09:31:51;20.05;;;14.23;;
75971;SDS011;64651;47.540;19.088;2024-01-15T09:36:54;20.20;;;13.88;;
75971;SDS011;64651;47.540;19.088;2024-01-15T09:41:57;17.37;;;12.90;;
75971;SDS011;64651;47.540;19.088;2024-01-15T09:46:59;17.80;;;12.15;;
75971;SDS011;64651;47.540;19.088;2024-01-15T09:52:02;17.80;;;12.30;;
75971;SDS011;64651;47.540;19.088;2024-01-15T09:57:12;16.75;;;12.13;;
75971;SDS011;64651;47.540;19.088;2024-01-15T10:02:15;17.00;;;12.40;;
75971;SDS011;64651;47.540;19.088;2024-01-15T10:07:20;17.35;;;11.73;;
75971;SDS011;64651;47.540;19.088;2024-01-15T10:12:23;16.35;;;11.07;;
75971;SDS011;64651;47.540;19.088;2024-01-15T10:17:26;14.97;;;10.53;;
75971;SDS011;64651;47.540;19.088;2024-01-15T10:22:33;14.35;;;10.27;;
75971;SDS011;64651;47.540;19.088;2024-01-15T10:27:35;15.18;;;10.52;;
75971;SDS011;64651;47.540;19.088;2024-01-15T10:32:37;16.37;;;10.35;;
75971;SDS011;64651;47.540;19.088;2024-01-15T10:37:41;15.25;;;9.63;;
75971;SDS011;64651;47.540;19.088;2024-01-15T10:42:43;13.77;;;9.93;;
75971;SDS011;64651;47.540;19.088;2024-01-15T10:47:45;13.73;;;9.30;;
75971;SDS011;64651;47.540;19.088;2024-01-15T10:52:48;13.55;;;9.63;;
75971;SDS011;64651;47.540;19.088;2024-01-15T10:57:50;13.75;;;9.63;;
75971;SDS011;64651;47.540;19.088;2024-01-15T11:02:54;12.85;;;8.70;;
75971;SDS011;64651;47.540;19.088;2024-01-15T11:08:00;12.60;;;8.63;;
75971;SDS011;64651;47.540;19.088;2024-01-15T11:13:03;12.27;;;8.98;;
75971;SDS011;64651;47.540;19.088;2024-01-15T11:18:06;11.80;;;7.95;;
75971;SDS011;64651;47.540;19.088;2024-01-15T11:23:19;11.82;;;7.97;;
75971;SDS011;64651;47.540;19.088;2024-01-15T11:28:54;11.30;;;7.62;;
75971;SDS011;64651;47.540;19.088;2024-01-15T11:34:07;11.10;;;7.33;;
75971;SDS011;64651;47.540;19.088;2024-01-15T11:44:31;11.02;;;7.37;;
75971;SDS011;64651;47.540;19.088;2024-01-15T12:00:24;10.67;;;6.93;;
75971;SDS011;64651;47.540;19.088;2024-01-15T12:05:26;10.68;;;6.82;;
75971;SDS011;64651;47.540;19.088;2024-01-15T12:10:28;10.68;;;6.72;;
75971;SDS011;64651;47.540;19.088;2024-01-15T12:15:31;10.82;;;6.95;;
75971;SDS011;64651;47.540;19.088;2024-01-15T12:20:34;11.05;;;6.40;;
75971;SDS011;64651;47.540;19.088;2024-01-15T12:25:36;11.30;;;6.43;;
75971;SDS011;64651;47.540;19.088;2024-01-15T12:30:39;9.35;;;5.93;;
75971;SDS011;64651;47.540;19.088;2024-01-15T12:35:42;9.82;;;6.07;;
75971;SDS011;64651;47.540;19.088;2024-01-15T12:40:44;9.73;;;5.95;;
75971;SDS011;64651;47.540;19.088;2024-01-15T12:45:49;9.27;;;5.93;;
75971;SDS011;64651;47.540;19.088;2024-01-15T12:50:52;9.70;;;5.77;;
75971;SDS011;64651;47.540;19.088;2024-01-15T12:55:54;9.43;;;5.62;;
75971;SDS011;64651;47.540;19.088;2024-01-15T13:00:57;9.35;;;5.62;;
75971;SDS011;64651;47.540;19.088;2024-01-15T13:05:59;9.02;;;5.78;;
75971;SDS011;64651;47.540;19.088;2024-01-15T13:11:02;8.90;;;5.60;;
75971;SDS011;64651;47.540;19.088;2024-01-15T13:16:05;9.30;;;5.70;;
75971;SDS011;64651;47.540;19.088;2024-01-15T13:21:07;8.38;;;5.15;;
75971;SDS011;64651;47.540;19.088;2024-01-15T13:26:09;9.35;;;5.82;;
75971;SDS011;64651;47.540;19.088;2024-01-15T13:31:11;8.50;;;5.07;;
75971;SDS011;64651;47.540;19.088;2024-01-15T13:36:14;8.52;;;5.20;;
75971;SDS011;64651;47.540;19.088;2024-01-15T13:41:16;8.33;;;5.47;;
75971;SDS011;64651;47.540;19.088;2024-01-15T13:46:20;10.40;;;5.50;;
75971;SDS011;64651;47.540;19.088;2024-01-15T13:51:25;8.20;;;4.55;;
75971;SDS011;64651;47.540;19.088;2024-01-15T13:56:27;8.68;;;5.00;;
75971;SDS011;64651;47.540;19.088;2024-01-15T14:01:33;8.27;;;4.68;;
75971;SDS011;64651;47.540;19.088;2024-01-15T14:06:35;10.33;;;6.17;;
75971;SDS011;64651;47.540;19.088;2024-01-15T14:11:37;8.68;;;4.62;;
75971;SDS011;64651;47.540;19.088;2024-01-15T14:16:40;8.45;;;5.18;;
75971;SDS011;64651;47.540;19.088;2024-01-15T14:21:42;8.65;;;4.78;;
75971;SDS011;64651;47.540;19.088;2024-01-15T14:26:44;7.62;;;4.35;;
75971;SDS011;64651;47.540;19.088;2024-01-15T14:31:47;8.53;;;5.17;;
75971;SDS011;64651;47.540;19.088;2024-01-15T14:36:50;8.30;;;4.62;;
75971;SDS011;64651;47.540;19.088;2024-01-15T14:41:52;8.77;;;5.07;;
75971;SDS011;64651;47.540;19.088;2024-01-15T14:46:54;8.57;;;4.72;;
75971;SDS011;64651;47.540;19.088;2024-01-15T14:51:57;8.50;;;5.00;;
75971;SDS011;64651;47.540;19.088;2024-01-15T14:56:59;8.50;;;4.57;;
75971;SDS011;64651;47.540;19.088;2024-01-15T15:02:02;9.02;;;5.20;;
75971;SDS011;64651;47.540;19.088;2024-01-15T15:07:05;8.18;;;4.55;;
75971;SDS011;64651;47.540;19.088;2024-01-15T15:12:08;8.30;;;4.18;;
75971;SDS011;64651;47.540;19.088;2024-01-15T15:17:11;7.93;;;4.50;;
75971;SDS011;64651;47.540;19.088;2024-01-15T15:22:13;8.13;;;4.10;;
75971;SDS011;64651;47.540;19.088;2024-01-15T15:27:16;7.70;;;4.35;;
75971;SDS011;64651;47.540;19.088;2024-01-15T15:32:18;8.20;;;4.65;;
75971;SDS011;64651;47.540;19.088;2024-01-15T15:37:20;7.90;;;4.60;;
75971;SDS011;64651;47.540;19.088;2024-01-15T15:42:22;7.57;;;4.28;;
75971;SDS011;64651;47.540;19.088;2024-01-15T15:47:26;7.30;;;4.20;;
75971;SDS011;64651;47.540;19.088;2024-01-15T15:52:28;7.95;;;4.47;;
75971;SDS011;64651;47.540;19.088;2024-01-15T15:57:31;8.52;;;4.70;;
75971;SDS011;64651;47.540;19.088;2024-01-15T16:02:33;7.62;;;4.43;;
75971;SDS011;64651;47.540;19.088;2024-01-15T16:07:36;7.28;;;3.85;;
75971;SDS011;64651;47.540;19.088;2024-01-15T16:12:39;8.17;;;4.23;;
75971;SDS011;64651;47.540;19.088;2024-01-15T16:17:41;8.13;;;4.25;;
75971;SDS011;64651;47.540;19.088;2024-01-15T16:23:03;7.85;;;4.03;;
75971;SDS011;64651;47.540;19.088;2024-01-15T16:28:25;7.90;;;3.97;;
75971;SDS011;64651;47.540;19.088;2024-01-15T16:33:28;6.85;;;3.67;;
75971;SDS011;64651;47.540;19.088;2024-01-15T16:38:30;7.20;;;3.70;;
75971;SDS011;64651;47.540;19.088;2024-01-15T16:43:32;7.65;;;4.22;;
75971;SDS011;64651;47.540;19.088;2024-01-15T16:48:34;7.15;;;4.03;;
75971;SDS011;64651;47.540;19.088;2024-01-15T16:53:37;7.80;;;4.28;;
75971;SDS011;64651;47.540;19.088;2024-01-15T16:58:39;7.45;;;3.40;;
75971;SDS011;64651;47.540;19.088;2024-01-15T17:03:41;6.83;;;3.70;;
75971;SDS011;64651;47.540;19.088;2024-01-15T17:08:43;7.55;;;3.83;;
75971;SDS011;64651;47.540;19.088;2024-01-15T17:13:45;7.60;;;4.10;;
75971;SDS011;64651;47.540;19.088;2024-01-15T17:18:47;6.68;;;3.85;;
75971;SDS011;64651;47.540;19.088;2024-01-15T17:23:50;7.50;;;3.85;;
75971;SDS011;64651;47.540;19.088;2024-01-15T17:28:52;6.90;;;3.73;;
75971;SDS011;64651;47.540;19.088;2024-01-15T17:33:54;7.00;;;3.92;;
75971;SDS011;64651;47.540;19.088;2024-01-15T17:39:00;7.43;;;3.70;;
75971;SDS011;64651;47.540;19.088;2024-01-15T17:44:02;6.85;;;3.42;;
75971;SDS011;64651;47.540;19.088;2024-01-15T17:49:04;8.27;;;3.53;;
75971;SDS011;64651;47.540;19.088;2024-01-15T17:54:07;6.87;;;3.47;;
75971;SDS011;64651;47.540;19.088;2024-01-15T17:59:10;7.15;;;3.67;;
75971;SDS011;64651;47.540;19.088;2024-01-15T18:04:13;7.00;;;3.83;;
75971;SDS011;64651;47.540;19.088;2024-01-15T18:09:16;6.85;;;3.70;;
75971;SDS011;64651;47.540;19.088;2024-01-15T18:14:19;7.30;;;3.72;;
75971;SDS011;64651;47.540;19.088;2024-01-15T18:19:21;6.90;;;3.60;;
75971;SDS011;64651;47.540;19.088;2024-01-15T18:24:23;6.78;;;3.72;;
75971;SDS011;64651;47.540;19.088;2024-01-15T18:29:25;7.15;;;3.10;;
75971;SDS011;64651;47.540;19.088;2024-01-15T18:34:28;6.90;;;3.40;;
75971;SDS011;64651;47.540;19.088;2024-01-15T18:39:30;7.05;;;3.65;;
75971;SDS011;64651;47.540;19.088;2024-01-15T18:44:32;7.63;;;3.83;;
75971;SDS011;64651;47.540;19.088;2024-01-15T18:49:34;7.18;;;3.67;;
75971;SDS011;64651;47.540;19.088;2024-01-15T18:54:37;7.10;;;3.53;;
75971;SDS011;64651;47.540;19.088;2024-01-15T18:59:43;7.50;;;3.33;;
75971;SDS011;64651;47.540;19.088;2024-01-15T19:04:48;6.57;;;2.95;;
75971;SDS011;64651;47.540;19.088;2024-01-15T19:09:50;7.43;;;3.57;;
75971;SDS011;64651;47.540;19.088;2024-01-15T19:14:53;8.35;;;3.80;;
75971;SDS011;64651;47.540;19.088;2024-01-15T19:19:55;8.70;;;4.18;;
75971;SDS011;64651;47.540;19.088;2024-01-15T19:24:57;6.95;;;3.53;;
75971;SDS011;64651;47.540;19.088;2024-01-15T19:30:00;7.85;;;3.87;;
75971;SDS011;64651;47.540;19.088;2024-01-15T19:35:02;6.73;;;3.30;;
75971;SDS011;64651;47.540;19.088;2024-01-15T19:40:05;7.00;;;3.53;;
75971;SDS011;64651;47.540;19.088;2024-01-15T19:45:08;6.90;;;3.28;;
75971;SDS011;64651;47.540;19.088;2024-01-15T19:50:10;7.20;;;3.12;;
75971;SDS011;64651;47.540;19.088;2024-01-15T19:55:13;6.70;;;3.33;;
75971;SDS011;64651;47.540;19.088;2024-01-15T20:00:16;6.90;;;3.53;;
75971;SDS011;64651;47.540;19.088;2024-01-15T20:05:18;6.60;;;3.55;;
75971;SDS011;64651;47.540;19.088;2024-01-15T20:10:20;6.80;;;3.22;;
75971;SDS011;64651;47.540;19.088;2024-01-15T20:15:22;7.10;;;3.83;;
75971;SDS011;64651;47.540;19.088;2024-01-15T20:20:25;7.10;;;3.30;;
75971;SDS011;64651;47.540;19.088;2024-01-15T20:25:27;6.77;;;3.33;;
75971;SDS011;64651;47.540;19.088;2024-01-15T20:30:46;6.62;;;3.40;;
75971;SDS011;64651;47.540;19.088;2024-01-15T20:35:49;6.40;;;3.00;;
75971;SDS011;64651;47.540;19.088;2024-01-15T20:40:52;6.28;;;3.25;;
75971;SDS011;64651;47.540;19.088;2024-01-15T20:45:54;7.20;;;3.10;;
75971;SDS011;64651;47.540;19.088;2024-01-15T20:50:57;7.03;;;3.10;;
75971;SDS011;64651;47.540;19.088;2024-01-15T20:56:00;6.20;;;3.10;;
75971;SDS011;64651;47.540;19.088;2024-01-15T21:01:05;6.37;;;3.05;;
75971;SDS011;64651;47.540;19.088;2024-01-15T21:06:08;6.87;;;3.15;;
75971;SDS011;64651;47.540;19.088;2024-01-15T21:11:10;6.12;;;2.75;;
75971;SDS011;64651;47.540;19.088;2024-01-15T21:16:15;6.33;;;3.23;;
75971;SDS011;64651;47.540;19.088;2024-01-15T21:21:17;7.95;;;3.35;;
75971;SDS011;64651;47.540;19.088;2024-01-15T21:26:20;9.90;;;4.32;;
75971;SDS011;64651;47.540;19.088;2024-01-15T21:31:22;9.63;;;3.47;;
75971;SDS011;64651;47.540;19.088;2024-01-15T21:36:24;9.82;;;3.05;;
75971;SDS011;64651;47.540;19.088;2024-01-15T21:41:27;9.50;;;3.53;;
75971;SDS011;64651;47.540;19.088;2024-01-15T21:46:29;10.23;;;3.60;;
75971;SDS011;64651;47.540;19.088;2024-01-15T21:51:31;12.00;;;3.45;;
75971;SDS011;64651;47.540;19.088;2024-01-15T21:56:35;9.82;;;3.78;;
75971;SDS011;64651;47.540;19.088;2024-01-15T22:01:38;9.73;;;3.92;;
75971;SDS011;64651;47.540;19.088;2024-01-15T22:06:41;9.37;;;4.00;;
75971;SDS011;64651;47.540;19.088;2024-01-15T22:11:43;10.55;;;3.83;;
75971;SDS011;64651;47.540;19.088;2024-01-15T22:16:46;8.35;;;4.00;;
75971;SDS011;64651;47.540;19.088;2024-01-15T22:21:48;10.43;;;4.10;;
75971;SDS011;64651;47.540;19.088;2024-01-15T22:26:51;9.45;;;3.92;;
75971;SDS011;64651;47.540;19.088;2024-01-15T22:31:53;8.50;;;3.70;;
75971;SDS011;64651;47.540;19.088;2024-01-15T22:36:55;9.85;;;3.78;;
75971;SDS011;64651;47.540;19.088;2024-01-15T22:41:57;8.82;;;3.87;;
75971;SDS011;64651;47.540;19.088;2024-01-15T22:46:59;8.18;;;3.67;;
75971;SDS011;64651;47.540;19.088;2024-01-15T22:52:01;6.72;;;3.03;;
75971;SDS011;64651;47.540;19.088;2024-01-15T22:57:03;8.13;;;3.53;;
75971;SDS011;64651;47.540;19.088;2024-01-15T23:02:06;8.20;;;3.80;;
75971;SDS011;64651;47.540;19.088;2024-01-15T23:07:08;8.63;;;3.83;;
75971;SDS011;64651;47.540;19.088;2024-01-15T23:12:10;7.87;;;3.92;;
75971;SDS011;64651;47.540;19.088;2024-01-15T23:17:13;7.47;;;3.78;;
75971;SDS011;64651;47.540;19.088;2024-01-15T23:22:15;7.47;;;3.80;;
75971;SDS011;64651;47.540;19.088;2024-01-15T23:27:17;7.43;;;3.03;;
75971;SDS011;64651;47.540;19.088;2024-01-15T23:32:19;7.53;;;3.22;;
75971;SDS011;64651;47.540;19.088;2024-01-15T23:37:21;7.97;;;3.80;;
75971;SDS011;64651;47.540;19.088;2024-01-15T23:42:24;7.40;;;3.15;;
75971;SDS011;64651;47.540;19.088;2024-01-15T23:47:26;7.17;;;3.50;;
75971;SDS011;64651;47.540;19.088;2024-01-15T23:52:29;7.32;;;3.55;;
75971;SDS011;64651;47.540;19.088;2024-01-15T23:57:31;7.30;;;3.50;;
